sensor_id;sensor_type;location;lat;lon;timestamp;pressure;altitude;pressure_sealevel;temperature;humidity
55757;BME280;41676;44.610;44.078;2023-09-07T00:01:32;100444.06;;;16.57;79.64
55757;BME280;41676;44.610;44.078;2023-09-07T00:06:33;100436.44;;;16.67;79.87
55757;BME280;41676;44.610;44.078;2023-09-07T00:11:34;100422.41;;;16.72;79.49
55757;BME280;41676;44.610;44.078;2023-09-07T00:16:35;100417.44;;;16.56;79.51
55757;BME280;41676;44.610;44.078;2023-09-07T00:21:38;100401.50;;;16.21;80.21
55757;BME280;41676;44.610;44.078;2023-09-07T00:26:39;100440.75;;;16.49;80.43
55757;BME280;41676;44.610;44.078;2023-09-07T00:31:40;100447.75;;;16.50;80.49
55757;BME280;41676;44.610;44.078;2023-09-07T00:36:41;100407.91;;;16.20;80.86
55757;BME280;41676;44.610;44.078;2023-09-07T00:41:42;100411.81;;;16.11;81.09
55757;BME280;41676;44.610;44.078;2023-09-07T00:46:43;100394.91;;;16.04;81.50
55757;BME280;41676;44.610;44.078;2023-09-07T00:51:45;100382.91;;;15.93;81.16
55757;BME280;41676;44.610;44.078;2023-09-07T00:56:45;100396.69;;;15.83;81.43
55757;BME280;41676;44.610;44.078;2023-09-07T01:01:46;100442.88;;;15.92;81.87
55757;BME280;41676;44.610;44.078;2023-09-07T01:06:56;100423.47;;;15.77;83.54
55757;BME280;41676;44.610;44.078;2023-09-07T01:11:58;100441.84;;;15.93;82.45
55757;BME280;41676;44.610;44.078;2023-09-07T01:16:59;100439.31;;;15.78;82.48
55757;BME280;41676;44.610;44.078;2023-09-07T01:22:01;100436.31;;;15.60;83.07
55757;BME280;41676;44.610;44.078;2023-09-07T01:27:03;100429.53;;;15.64;83.38
55757;BME280;41676;44.610;44.078;2023-09-07T01:32:05;100435.38;;;15.74;83.50
55757;BME280;41676;44.610;44.078;2023-09-07T01:37:06;100361.19;;;15.26;83.23
55757;BME280;41676;44.610;44.078;2023-09-07T01:42:07;100407.56;;;15.40;83.70
55757;BME280;41676;44.610;44.078;2023-09-07T01:47:08;100413.94;;;15.33;83.89
55757;BME280;41676;44.610;44.078;2023-09-07T01:52:08;100396.25;;;15.38;83.71
55757;BME280;41676;44.610;44.078;2023-09-07T01:57:09;100425.34;;;15.48;83.27
55757;BME280;41676;44.610;44.078;2023-09-07T02:02:10;100410.63;;;15.30;83.45
55757;BME280;41676;44.610;44.078;2023-09-07T02:07:12;100429.59;;;15.36;83.54
55757;BME280;41676;44.610;44.078;2023-09-07T02:12:13;100429.56;;;15.29;83.39
55757;BME280;41676;44.610;44.078;2023-09-07T02:17:14;100433.47;;;15.26;83.27
55757;BME280;41676;44.610;44.078;2023-09-07T02:22:18;100394.59;;;15.02;83.47
55757;BME280;41676;44.610;44.078;2023-09-07T02:27:19;100436.31;;;15.25;83.48
55757;BME280;41676;44.610;44.078;2023-09-07T02:32:19;100369.72;;;14.74;83.39
55757;BME280;41676;44.610;44.078;2023-09-07T02:37:20;100364.06;;;14.62;83.72
55757;BME280;41676;44.610;44.078;2023-09-07T02:42:21;100378.63;;;14.59;83.82
55757;BME280;41676;44.610;44.078;2023-09-07T02:47:21;100405.75;;;14.78;84.03
55757;BME280;41676;44.610;44.078;2023-09-07T02:52:22;100356.63;;;14.57;84.12
55757;BME280;41676;44.610;44.078;2023-09-07T02:57:23;100422.03;;;15.11;84.31
55757;BME280;41676;44.610;44.078;2023-09-07T03:02:24;100447.97;;;15.45;83.73
55757;BME280;41676;44.610;44.078;2023-09-07T03:07:25;100411.13;;;15.47;83.32
55757;BME280;41676;44.610;44.078;2023-09-07T03:12:26;100357.91;;;15.31;83.13
55757;BME280;41676;44.610;44.078;2023-09-07T03:17:27;100372.19;;;15.45;82.90
55757;BME280;41676;44.610;44.078;2023-09-07T03:22:28;100435.94;;;16.11;82.20
55757;BME280;41676;44.610;44.078;2023-09-07T03:27:29;100421.78;;;16.50;81.71
55757;BME280;41676;44.610;44.078;2023-09-07T03:32:31;100409.00;;;17.12;80.93
55757;BME280;41676;44.610;44.078;2023-09-07T03:37:33;100394.13;;;17.81;77.67
55757;BME280;41676;44.610;44.078;2023-09-07T03:42:35;100418.22;;;18.89;74.54
55757;BME280;41676;44.610;44.078;2023-09-07T03:47:37;100437.13;;;20.00;71.52
55757;BME280;41676;44.610;44.078;2023-09-07T03:52:38;100431.16;;;20.93;68.98
55757;BME280;41676;44.610;44.078;2023-09-07T03:57:38;100424.19;;;21.68;66.48
55757;BME280;41676;44.610;44.078;2023-09-07T04:02:39;100425.56;;;22.40;64.00
55757;BME280;41676;44.610;44.078;2023-09-07T04:07:40;100408.28;;;22.74;62.44
55757;BME280;41676;44.610;44.078;2023-09-07T04:12:40;100419.69;;;23.10;61.21
55757;BME280;41676;44.610;44.078;2023-09-07T04:17:41;100375.91;;;23.40;58.63
55757;BME280;41676;44.610;44.078;2023-09-07T04:22:42;100402.34;;;23.94;57.15
55757;BME280;41676;44.610;44.078;2023-09-07T04:27:43;100375.22;;;23.94;56.18
55757;BME280;41676;44.610;44.078;2023-09-07T04:32:43;100424.47;;;24.62;54.52
55757;BME280;41676;44.610;44.078;2023-09-07T04:37:44;100399.47;;;24.33;54.27
55757;BME280;41676;44.610;44.078;2023-09-07T04:42:45;100389.53;;;24.17;53.85
55757;BME280;41676;44.610;44.078;2023-09-07T04:47:46;100430.22;;;24.11;53.61
55757;BME280;41676;44.610;44.078;2023-09-07T04:52:47;100274.84;;;22.79;53.86
55757;BME280;41676;44.610;44.078;2023-09-07T04:57:48;100271.38;;;22.62;53.84
55757;BME280;41676;44.610;44.078;2023-09-07T05:02:49;100444.84;;;23.66;53.96
55757;BME280;41676;44.610;44.078;2023-09-07T05:07:50;100348.44;;;22.93;54.54
55757;BME280;41676;44.610;44.078;2023-09-07T05:12:50;100289.72;;;22.76;54.50
55757;BME280;41676;44.610;44.078;2023-09-07T05:17:55;100336.72;;;23.26;53.94
55757;BME280;41676;44.610;44.078;2023-09-07T05:22:56;100393.41;;;23.72;54.02
55757;BME280;41676;44.610;44.078;2023-09-07T05:27:57;100325.84;;;23.48;53.85
55757;BME280;41676;44.610;44.078;2023-09-07T05:32:58;100446.22;;;24.40;53.14
55757;BME280;41676;44.610;44.078;2023-09-07T05:37:58;100445.28;;;24.51;52.80
55757;BME280;41676;44.610;44.078;2023-09-07T05:42:59;100401.91;;;24.34;53.31
55757;BME280;41676;44.610;44.078;2023-09-07T05:48:00;100281.44;;;23.54;52.13
55757;BME280;41676;44.610;44.078;2023-09-07T05:53:01;100344.16;;;24.12;53.20
55757;BME280;41676;44.610;44.078;2023-09-07T05:58:06;100313.50;;;24.11;50.82
55757;BME280;41676;44.610;44.078;2023-09-07T06:03:08;100355.38;;;24.53;50.90
55757;BME280;41676;44.610;44.078;2023-09-07T06:08:09;100333.78;;;24.68;49.98
55757;BME280;41676;44.610;44.078;2023-09-07T06:13:10;100366.28;;;25.00;49.51
55757;BME280;41676;44.610;44.078;2023-09-07T06:18:11;100355.59;;;25.26;47.89
55757;BME280;41676;44.610;44.078;2023-09-07T06:23:12;100397.66;;;25.76;47.46
55757;BME280;41676;44.610;44.078;2023-09-07T06:28:12;100369.88;;;25.69;46.90
55757;BME280;41676;44.610;44.078;2023-09-07T06:33:13;100356.50;;;25.57;46.16
55757;BME280;41676;44.610;44.078;2023-09-07T06:38:14;100348.69;;;25.81;45.35
55757;BME280;41676;44.610;44.078;2023-09-07T06:43:14;100402.97;;;26.29;45.71
55757;BME280;41676;44.610;44.078;2023-09-07T06:48:15;100418.22;;;26.86;44.08
55757;BME280;41676;44.610;44.078;2023-09-07T06:53:16;100379.25;;;26.96;44.10
55757;BME280;41676;44.610;44.078;2023-09-07T06:58:17;100368.13;;;26.61;44.19
55757;BME280;41676;44.610;44.078;2023-09-07T07:03:18;100239.88;;;25.86;43.51
55757;BME280;41676;44.610;44.078;2023-09-07T07:08:19;100351.25;;;26.54;44.16
55757;BME280;41676;44.610;44.078;2023-09-07T07:13:20;100376.53;;;26.91;44.49
55757;BME280;41676;44.610;44.078;2023-09-07T07:18:21;100376.72;;;27.35;42.57
55757;BME280;41676;44.610;44.078;2023-09-07T07:23:23;100353.38;;;26.83;42.16
55757;BME280;41676;44.610;44.078;2023-09-07T07:28:24;100343.44;;;27.28;42.93
55757;BME280;41676;44.610;44.078;2023-09-07T07:33:24;100368.59;;;27.74;41.11
55757;BME280;41676;44.610;44.078;2023-09-07T07:38:25;100372.31;;;27.94;40.21
55757;BME280;41676;44.610;44.078;2023-09-07T07:43:26;100334.22;;;27.79;39.73
55757;BME280;41676;44.610;44.078;2023-09-07T07:48:27;100373.22;;;28.23;39.18
55757;BME280;41676;44.610;44.078;2023-09-07T07:53:30;100305.72;;;27.95;38.79
55757;BME280;41676;44.610;44.078;2023-09-07T07:58:31;100353.03;;;28.19;38.39
55757;BME280;41676;44.610;44.078;2023-09-07T08:03:32;100343.22;;;28.18;38.57
55757;BME280;41676;44.610;44.078;2023-09-07T08:08:33;100317.56;;;28.14;39.14
55757;BME280;41676;44.610;44.078;2023-09-07T08:13:34;100303.41;;;28.12;38.50
55757;BME280;41676;44.610;44.078;2023-09-07T08:18:34;100280.72;;;28.12;37.87
55757;BME280;41676;44.610;44.078;2023-09-07T08:23:35;100286.31;;;28.31;37.55
55757;BME280;41676;44.610;44.078;2023-09-07T08:28:36;100309.50;;;28.62;37.22
55757;BME280;41676;44.610;44.078;2023-09-07T08:33:37;100295.78;;;28.67;37.19
55757;BME280;41676;44.610;44.078;2023-09-07T08:38:40;100308.78;;;28.81;37.13
55757;BME280;41676;44.610;44.078;2023-09-07T08:43:45;100313.75;;;28.98;36.51
55757;BME280;41676;44.610;44.078;2023-09-07T08:48:47;100288.97;;;28.89;37.55
55757;BME280;41676;44.610;44.078;2023-09-07T08:53:49;100303.41;;;29.19;37.17
55757;BME280;41676;44.610;44.078;2023-09-07T08:58:50;100288.19;;;29.12;36.15
55757;BME280;41676;44.610;44.078;2023-09-07T09:03:51;100277.28;;;29.07;36.04
55757;BME280;41676;44.610;44.078;2023-09-07T09:08:56;100288.13;;;29.18;36.90
55757;BME280;41676;44.610;44.078;2023-09-07T09:13:57;100271.72;;;29.37;36.32
55757;BME280;41676;44.610;44.078;2023-09-07T09:18:58;100287.75;;;29.43;36.30
55757;BME280;41676;44.610;44.078;2023-09-07T09:23:59;100272.47;;;29.42;36.54
55757;BME280;41676;44.610;44.078;2023-09-07T09:29:00;100228.97;;;29.22;36.44
55757;BME280;41676;44.610;44.078;2023-09-07T09:34:01;100254.78;;;29.53;36.69
55757;BME280;41676;44.610;44.078;2023-09-07T09:39:03;100240.78;;;29.55;36.58
55757;BME280;41676;44.610;44.078;2023-09-07T09:44:05;100244.94;;;29.52;35.40
55757;BME280;41676;44.610;44.078;2023-09-07T09:49:08;100172.97;;;28.95;35.69
55757;BME280;41676;44.610;44.078;2023-09-07T09:54:09;100216.53;;;29.10;35.72
55757;BME280;41676;44.610;44.078;2023-09-07T09:59:12;100202.09;;;28.62;35.53
55757;BME280;41676;44.610;44.078;2023-09-07T10:04:13;100259.34;;;29.58;34.95
55757;BME280;41676;44.610;44.078;2023-09-07T10:09:15;100193.94;;;29.05;35.48
55757;BME280;41676;44.610;44.078;2023-09-07T10:14:18;100161.72;;;29.02;35.41
55757;BME280;41676;44.610;44.078;2023-09-07T10:19:23;100241.78;;;29.64;34.87
55757;BME280;41676;44.610;44.078;2023-09-07T10:24:32;100228.00;;;29.69;34.38
55757;BME280;41676;44.610;44.078;2023-09-07T10:29:41;100170.31;;;28.90;35.02
55757;BME280;41676;44.610;44.078;2023-09-07T10:34:43;100209.50;;;28.32;35.91
55757;BME280;41676;44.610;44.078;2023-09-07T10:39:44;100216.19;;;28.50;36.46
55757;BME280;41676;44.610;44.078;2023-09-07T10:44:45;100189.38;;;28.52;36.44
55757;BME280;41676;44.610;44.078;2023-09-07T10:49:46;100155.81;;;28.71;34.81
55757;BME280;41676;44.610;44.078;2023-09-07T10:54:56;100219.81;;;29.50;33.92
55757;BME280;41676;44.610;44.078;2023-09-07T10:59:57;100110.56;;;29.02;33.88
55757;BME280;41676;44.610;44.078;2023-09-07T11:04:58;100213.69;;;29.21;34.87
55757;BME280;41676;44.610;44.078;2023-09-07T11:09:59;100123.56;;;28.01;36.49
55757;BME280;41676;44.610;44.078;2023-09-07T11:15:00;100095.41;;;27.47;36.92
55757;BME280;41676;44.610;44.078;2023-09-07T11:20:03;100046.00;;;27.19;36.18
55757;BME280;41676;44.610;44.078;2023-09-07T11:25:06;100178.69;;;28.75;34.89
55757;BME280;41676;44.610;44.078;2023-09-07T11:30:10;100165.41;;;29.11;34.97
55757;BME280;41676;44.610;44.078;2023-09-07T11:35:11;100154.97;;;29.32;34.23
55757;BME280;41676;44.610;44.078;2023-09-07T11:40:12;100123.41;;;29.21;33.94
55757;BME280;41676;44.610;44.078;2023-09-07T11:45:12;100144.84;;;29.32;33.58
55757;BME280;41676;44.610;44.078;2023-09-07T11:50:16;100112.06;;;29.27;33.07
55757;BME280;41676;44.610;44.078;2023-09-07T11:55:17;100098.13;;;29.43;33.14
55757;BME280;41676;44.610;44.078;2023-09-07T12:00:20;100117.63;;;29.74;33.01
55757;BME280;41676;44.610;44.078;2023-09-07T12:05:20;100095.09;;;29.63;33.39
55757;BME280;41676;44.610;44.078;2023-09-07T12:10:21;100030.88;;;29.09;32.74
55757;BME280;41676;44.610;44.078;2023-09-07T12:15:22;100115.06;;;29.64;33.27
55757;BME280;41676;44.610;44.078;2023-09-07T12:20:23;100077.09;;;29.24;33.05
55757;BME280;41676;44.610;44.078;2023-09-07T12:25:24;100129.84;;;29.11;33.47
55757;BME280;41676;44.610;44.078;2023-09-07T12:30:25;100046.00;;;28.02;34.35
55757;BME280;41676;44.610;44.078;2023-09-07T12:35:27;100087.84;;;28.45;34.23
55757;BME280;41676;44.610;44.078;2023-09-07T12:40:27;100113.88;;;28.99;33.44
55757;BME280;41676;44.610;44.078;2023-09-07T12:45:28;100117.09;;;29.01;32.91
55757;BME280;41676;44.610;44.078;2023-09-07T12:50:29;100058.38;;;28.61;32.97
55757;BME280;41676;44.610;44.078;2023-09-07T12:55:29;100069.22;;;28.85;33.11
55757;BME280;41676;44.610;44.078;2023-09-07T13:00:30;100073.78;;;28.89;32.70
55757;BME280;41676;44.610;44.078;2023-09-07T13:05:31;100095.53;;;29.19;32.25
55757;BME280;41676;44.610;44.078;2023-09-07T13:10:32;100093.47;;;29.10;32.47
55757;BME280;41676;44.610;44.078;2023-09-07T13:15:34;100104.03;;;29.17;33.21
55757;BME280;41676;44.610;44.078;2023-09-07T13:20:35;100056.44;;;28.99;33.00
55757;BME280;41676;44.610;44.078;2023-09-07T13:25:35;100114.13;;;29.35;32.19
55757;BME280;41676;44.610;44.078;2023-09-07T13:30:36;100100.19;;;28.80;32.32
55757;BME280;41676;44.610;44.078;2023-09-07T13:35:37;100082.59;;;28.25;32.93
55757;BME280;41676;44.610;44.078;2023-09-07T13:40:38;100079.56;;;27.78;33.89
55757;BME280;41676;44.610;44.078;2023-09-07T13:45:39;100046.47;;;27.26;35.14
55757;BME280;41676;44.610;44.078;2023-09-07T13:50:39;100089.88;;;27.52;35.34
55757;BME280;41676;44.610;44.078;2023-09-07T13:55:40;100040.25;;;27.50;33.82
55757;BME280;41676;44.610;44.078;2023-09-07T14:00:42;100054.84;;;27.64;34.10
55757;BME280;41676;44.610;44.078;2023-09-07T14:05:43;100097.28;;;27.75;33.92
55757;BME280;41676;44.610;44.078;2023-09-07T14:10:44;100100.47;;;27.59;33.97
55757;BME280;41676;44.610;44.078;2023-09-07T14:15:45;100085.47;;;27.27;34.14
55757;BME280;41676;44.610;44.078;2023-09-07T14:20:46;100002.56;;;26.54;35.49
55757;BME280;41676;44.610;44.078;2023-09-07T14:25:47;100058.00;;;26.74;36.20
55757;BME280;41676;44.610;44.078;2023-09-07T14:30:47;100113.50;;;26.88;36.87
55757;BME280;41676;44.610;44.078;2023-09-07T14:35:48;100056.22;;;26.54;38.10
55757;BME280;41676;44.610;44.078;2023-09-07T14:40:54;100079.56;;;26.65;38.33
55757;BME280;41676;44.610;44.078;2023-09-07T14:45:55;100100.56;;;26.64;39.21
55757;BME280;41676;44.610;44.078;2023-09-07T14:50:56;100088.66;;;26.40;39.88
55757;BME280;41676;44.610;44.078;2023-09-07T14:55:57;100003.66;;;25.78;39.02
55757;BME280;41676;44.610;44.078;2023-09-07T15:00:58;100086.34;;;26.08;40.66
55757;BME280;41676;44.610;44.078;2023-09-07T15:05:59;100026.06;;;25.39;41.30
55757;BME280;41676;44.610;44.078;2023-09-07T15:11:02;100114.16;;;25.54;43.45
55757;BME280;41676;44.610;44.078;2023-09-07T15:16:03;100114.44;;;25.32;45.10
55757;BME280;41676;44.610;44.078;2023-09-07T15:21:05;100055.06;;;24.67;46.63
55757;BME280;41676;44.610;44.078;2023-09-07T15:26:05;100110.22;;;24.73;48.52
55757;BME280;41676;44.610;44.078;2023-09-07T15:31:06;100125.66;;;24.52;50.01
55757;BME280;41676;44.610;44.078;2023-09-07T15:36:33;100132.88;;;24.36;54.14
55757;BME280;41676;44.610;44.078;2023-09-07T15:48:28;99973.69;;;22.77;51.46
55757;BME280;41676;44.610;44.078;2023-09-07T15:53:32;100156.63;;;23.71;53.17
55757;BME280;41676;44.610;44.078;2023-09-07T15:58:33;100146.38;;;23.46;50.02
55757;BME280;41676;44.610;44.078;2023-09-07T16:03:34;100174.34;;;23.52;49.54
55757;BME280;41676;44.610;44.078;2023-09-07T16:08:35;100121.72;;;23.20;46.81
55757;BME280;41676;44.610;44.078;2023-09-07T16:13:36;100145.56;;;23.45;45.10
55757;BME280;41676;44.610;44.078;2023-09-07T16:18:37;100184.50;;;23.66;44.56
55757;BME280;41676;44.610;44.078;2023-09-07T16:23:37;100213.84;;;23.69;44.14
55757;BME280;41676;44.610;44.078;2023-09-07T16:28:38;100217.56;;;23.63;44.27
55757;BME280;41676;44.610;44.078;2023-09-07T16:33:39;100213.34;;;23.51;43.95
55757;BME280;41676;44.610;44.078;2023-09-07T16:38:40;100222.50;;;23.44;43.60
55757;BME280;41676;44.610;44.078;2023-09-07T16:43:40;100202.22;;;23.20;43.97
55757;BME280;41676;44.610;44.078;2023-09-07T16:48:41;100242.50;;;23.11;45.00
55757;BME280;41676;44.610;44.078;2023-09-07T16:53:42;100213.31;;;22.74;44.91
55757;BME280;41676;44.610;44.078;2023-09-07T16:58:43;100242.09;;;22.81;45.34
55757;BME280;41676;44.610;44.078;2023-09-07T17:03:44;100224.72;;;22.76;44.09
55757;BME280;41676;44.610;44.078;2023-09-07T17:08:45;100252.75;;;22.87;43.28
55757;BME280;41676;44.610;44.078;2023-09-07T17:13:45;100230.31;;;22.70;43.64
55757;BME280;41676;44.610;44.078;2023-09-07T17:18:46;100220.16;;;22.60;42.62
55757;BME280;41676;44.610;44.078;2023-09-07T17:23:47;100227.09;;;22.73;42.34
55757;BME280;41676;44.610;44.078;2023-09-07T17:28:49;100216.22;;;22.68;41.96
55757;BME280;41676;44.610;44.078;2023-09-07T17:33:52;100251.53;;;22.95;41.77
55757;BME280;41676;44.610;44.078;2023-09-07T17:38:54;100258.81;;;22.94;41.91
55757;BME280;41676;44.610;44.078;2023-09-07T17:43:55;100256.56;;;22.69;43.49
55757;BME280;41676;44.610;44.078;2023-09-07T17:48:56;100209.81;;;22.18;45.31
55757;BME280;41676;44.610;44.078;2023-09-07T17:53:58;100216.56;;;21.99;46.68
55757;BME280;41676;44.610;44.078;2023-09-07T17:58:59;100256.28;;;22.15;47.71
55757;BME280;41676;44.610;44.078;2023-09-07T18:04:00;100235.13;;;21.95;48.01
55757;BME280;41676;44.610;44.078;2023-09-07T18:09:01;100251.59;;;22.10;47.48
55757;BME280;41676;44.610;44.078;2023-09-07T18:14:02;100252.72;;;22.26;47.69
55757;BME280;41676;44.610;44.078;2023-09-07T18:19:03;100211.28;;;22.09;47.37
55757;BME280;41676;44.610;44.078;2023-09-07T18:24:04;100254.25;;;22.22;48.05
55757;BME280;41676;44.610;44.078;2023-09-07T18:29:04;100225.44;;;22.16;47.97
55757;BME280;41676;44.610;44.078;2023-09-07T18:34:05;100247.44;;;22.37;47.78
55757;BME280;41676;44.610;44.078;2023-09-07T18:39:06;100235.47;;;22.32;47.73
55757;BME280;41676;44.610;44.078;2023-09-07T18:44:09;100236.50;;;22.48;47.54
55757;BME280;41676;44.610;44.078;2023-09-07T18:49:10;100242.00;;;22.53;48.40
55757;BME280;41676;44.610;44.078;2023-09-07T18:54:11;100223.00;;;22.31;48.78
55757;BME280;41676;44.610;44.078;2023-09-07T18:59:12;100248.66;;;22.46;47.76
55757;BME280;41676;44.610;44.078;2023-09-07T19:04:13;100177.19;;;22.08;46.48
55757;BME280;41676;44.610;44.078;2023-09-07T19:09:14;100233.19;;;22.41;45.92
55757;BME280;41676;44.610;44.078;2023-09-07T19:14:15;100218.22;;;22.17;46.64
55757;BME280;41676;44.610;44.078;2023-09-07T19:19:16;100227.91;;;22.01;47.34
55757;BME280;41676;44.610;44.078;2023-09-07T19:24:18;100161.28;;;21.44;47.09
55757;BME280;41676;44.610;44.078;2023-09-07T19:29:20;100221.03;;;21.76;47.42
55757;BME280;41676;44.610;44.078;2023-09-07T19:34:21;100223.41;;;21.73;46.71
55757;BME280;41676;44.610;44.078;2023-09-07T19:39:22;100210.63;;;21.68;47.53
55757;BME280;41676;44.610;44.078;2023-09-07T19:44:23;100203.16;;;21.58;47.53
55757;BME280;41676;44.610;44.078;2023-09-07T19:49:24;100194.41;;;21.51;48.75
55757;BME280;41676;44.610;44.078;2023-09-07T19:54:25;100213.31;;;21.51;48.66
55757;BME280;41676;44.610;44.078;2023-09-07T19:59:26;100170.31;;;21.21;48.47
55757;BME280;41676;44.610;44.078;2023-09-07T20:04:28;100186.44;;;21.16;49.03
55757;BME280;41676;44.610;44.078;2023-09-07T20:09:29;100208.53;;;21.13;49.26
55757;BME280;41676;44.610;44.078;2023-09-07T20:14:29;100221.53;;;21.16;49.54
55757;BME280;41676;44.610;44.078;2023-09-07T20:19:43;100160.63;;;20.80;52.24
55757;BME280;41676;44.610;44.078;2023-09-07T20:24:44;100197.53;;;20.91;52.80
55757;BME280;41676;44.610;44.078;2023-09-07T20:29:45;100208.88;;;20.76;54.03
55757;BME280;41676;44.610;44.078;2023-09-07T20:34:46;100192.25;;;20.56;54.00
55757;BME280;41676;44.610;44.078;2023-09-07T20:39:46;100220.38;;;20.71;54.75
55757;BME280;41676;44.610;44.078;2023-09-07T20:44:47;100212.78;;;20.57;56.06
55757;BME280;41676;44.610;44.078;2023-09-07T20:49:48;100214.16;;;20.47;56.78
55757;BME280;41676;44.610;44.078;2023-09-07T20:54:49;100194.94;;;20.32;56.71
55757;BME280;41676;44.610;44.078;2023-09-07T20:59:49;100160.69;;;19.97;57.12
55757;BME280;41676;44.610;44.078;2023-09-07T21:04:51;100211.25;;;20.14;57.87
55757;BME280;41676;44.610;44.078;2023-09-07T21:09:53;100216.75;;;19.95;58.42
55757;BME280;41676;44.610;44.078;2023-09-07T21:14:54;100201.81;;;19.69;57.93
55757;BME280;41676;44.610;44.078;2023-09-07T21:19:55;100218.53;;;19.59;57.94
55757;BME280;41676;44.610;44.078;2023-09-07T21:24:56;100229.97;;;19.55;56.93
55757;BME280;41676;44.610;44.078;2023-09-07T21:29:57;100212.50;;;19.15;55.89
55757;BME280;41676;44.610;44.078;2023-09-07T21:34:58;100253.41;;;19.24;55.75
55757;BME280;41676;44.610;44.078;2023-09-07T21:39:59;100238.16;;;19.18;56.01
55757;BME280;41676;44.610;44.078;2023-09-07T21:44:59;100244.50;;;19.05;56.93
55757;BME280;41676;44.610;44.078;2023-09-07T21:50:00;100222.56;;;18.90;57.89
55757;BME280;41676;44.610;44.078;2023-09-07T21:55:03;100228.84;;;18.84;57.97
55757;BME280;41676;44.610;44.078;2023-09-07T22:00:04;100234.91;;;18.79;58.75
55757;BME280;41676;44.610;44.078;2023-09-07T22:05:11;100244.97;;;18.65;59.61
55757;BME280;41676;44.610;44.078;2023-09-07T22:10:12;100194.78;;;18.16;60.57
55757;BME280;41676;44.610;44.078;2023-09-07T22:15:13;100224.34;;;18.16;61.31
55757;BME280;41676;44.610;44.078;2023-09-07T22:20:14;100238.00;;;18.14;61.27
55757;BME280;41676;44.610;44.078;2023-09-07T22:25:15;100210.59;;;17.81;61.99
55757;BME280;41676;44.610;44.078;2023-09-07T22:30:16;100230.16;;;17.88;62.45
55757;BME280;41676;44.610;44.078;2023-09-07T22:35:17;100236.19;;;17.83;62.17
55757;BME280;41676;44.610;44.078;2023-09-07T22:40:18;100229.63;;;17.72;62.32
55757;BME280;41676;44.610;44.078;2023-09-07T22:45:19;100237.13;;;17.64;62.58
55757;BME280;41676;44.610;44.078;2023-09-07T22:50:19;100254.06;;;17.64;62.65
55757;BME280;41676;44.610;44.078;2023-09-07T23:00:42;100257.03;;;17.49;63.62
55757;BME280;41676;44.610;44.078;2023-09-07T23:05:43;100255.53;;;17.60;62.49
55757;BME280;41676;44.610;44.078;2023-09-07T23:10:44;100194.88;;;17.46;61.67
55757;BME280;41676;44.610;44.078;2023-09-07T23:15:45;100252.91;;;17.85;61.74
55757;BME280;41676;44.610;44.078;2023-09-07T23:20:47;100242.84;;;17.81;61.26
55757;BME280;41676;44.610;44.078;2023-09-07T23:25:48;100218.31;;;17.64;61.99
55757;BME280;41676;44.610;44.078;2023-09-07T23:30:52;100202.56;;;17.42;61.83
55757;BME280;41676;44.610;44.078;2023-09-07T23:35:54;100281.88;;;17.83;62.29
55757;BME280;41676;44.610;44.078;2023-09-07T23:40:55;100287.03;;;17.85;62.16
55757;BME280;41676;44.610;44.078;2023-09-07T23:45:56;100288.66;;;17.86;61.82
55757;BME280;41676;44.610;44.078;2023-09-07T23:50:56;100279.63;;;17.73;61.80
55757;BME280;41676;44.610;44.078;2023-09-07T23:55:57;100280.22;;;17.82;61.62
